Terminal Aerodrome Forecast
Issued by NWS

Home | Current Version | Previous Version | Text Only | Print | Product List | Glossary On
Versions: 1 2 3 4 5 6 7 8 9 10 11 12 13 14 15 16 17 18 19 20 21 22 23 24 25 26 27
000
FTUS44 KMOB 041333 AAA
TAFBFM
TAF AMD
KBFM 041333Z 0414/0512 34004KT P6SM FEW007 SCT018
     FM041500 34002KT P6SM SCT040 SCT250
     FM042000 19006KT P6SM VCTS SCT040CB SCT250
     FM050300 VRB03KT P6SM SCT250=

USA.gov is the U.S. government's official web portal to all federal, state and local government web resources and services.